Latest Coastal Weather Observations for Neptune Island

IDT60701

Issued at 2:52 pm EDT Sunday 14 February 2016 (issued every 10 minutes, with the page automatically refreshed every 10 minutes)

About coastal observations | Map of coastal stations | Coastal observations for TAS | Marine services | Other Formats
Station Details ID: 018115 Name: NEPTUNE ISLAND Lat: -35.34 Lon: 136.12 Height: 32.0 m
Data from the previous 72 hours. | See also: Recent months at Neptune Island
Date/Time
EDT
Temp

°C
Wind Pressure Rain
since 9am
mm
Weather Cloud Vis
km
Sea
Height
m
Swell
Dir
 
Speed
knots
Gust
knots
hPa Trend Height
m
Period
s
Dir
14/02:30pm 19.1 SW 16 20 1016.7 - 0.0 - - - - - - -
14/02:00pm 19.7 SW 18 22 1016.8 - 0.0 - - - - - - -
14/01:30pm 20.5 WSW 12 15 1016.8 - 0.0 - - - - - - -
14/01:00pm 20.7 WSW 12 15 1016.9 - 0.0 - - - - - - -
14/12:30pm 20.2 WSW 12 14 1016.9 - 0.0 - - - - - - -
14/12:00pm 20.0 SW 12 15 1017.0 - 0.0 - - - - - - -
14/11:30am 19.9 SW 7 10 1017.0 - 0.0 - - - - - - -
14/11:00am 19.3 SW 10 12 1017.1 - 0.0 - - - - - - -
14/10:30am 19.4 SW 14 17 1017.0 - 0.0 - - - - - - -
14/10:00am 19.3 SW 14 16 1016.8 - 0.0 - - - - - - -
14/09:30am 18.9 SW 16 18 1016.6 - 0.0 - - - - - - -
14/09:00am 18.4 SW 15 19 1016.2 - 0.0 - - - - - - -
14/08:30am 18.0 SW 17 20 1015.8 - 0.0 - - - - - - -
14/08:00am 17.8 SW 18 21 1015.3 - 0.0 - - - - - - -
14/07:30am 18.1 SW 20 24 1015.0 - 0.0 - - - - - - -
14/07:00am 18.1 WSW 18 21 1014.6 - 0.0 - - - - - - -
14/06:30am 17.8 WSW 13 16 1014.3 - 0.0 - - - - - - -
14/06:00am 17.8 WSW 17 20 1014.0 - 0.0 - - - - - - -
14/05:30am 17.8 WSW 19 21 1013.9 - 0.0 - - - - - - -
14/05:00am 17.8 SW 18 20 1013.8 - 0.0 - - - - - - -
14/04:30am 17.5 SW 17 21 1013.5 - 0.0 - - - - - - -
14/04:00am 17.7 SW 18 21 1013.6 - 0.0 - - - - - - -
14/03:30am 17.9 SW 17 21 1013.8 - 0.0 - - - - - - -
14/03:00am 17.8 SW 17 20 1013.9 - 0.0 - - - - - - -
14/02:30am 18.1 SW 19 22 1014.1 - 0.0 - - - - - - -
14/02:00am 18.2 SW 18 21 1014.4 - 0.0 - - - - - - -
14/01:30am 18.2 SW 17 19 1014.6 - 0.0 - - - - - - -
14/01:00am 18.3 SW 17 19 1014.6 - 0.0 - - - - - - -
14/12:30am 18.6 WSW 15 18 1014.7 - 0.0 - - - - - - -
14/12:00am 18.6 WSW 15 18 1014.9 - 0.0 - - - - - - -
 
Date/Time
EDT
Temp

°C
Wind Pressure Rain
since 9am
mm
Weather Cloud Vis
km
Sea
Height
m
Swell
Dir
 
Speed
knots
Gust
knots
hPa Trend Height
m
Period
s
Dir
13/11:30pm 18.7 SW 15 17 1015.1 - 0.0 - - - - - - -
13/11:00pm 18.8 SW 14 17 1015.2 - 0.0 - - - - - - -
13/10:30pm 18.7 SW 15 17 1015.1 - 0.0 - - - - - - -
13/10:00pm 18.9 SW 16 19 1014.7 - 0.0 - - - - - - -
13/09:30pm 19.0 SW 15 17 1014.4 - 0.0 - - - - - - -
13/09:00pm 19.0 SW 14 18 1014.1 - 0.0 - - - - - - -
13/08:30pm 19.5 SW 16 19 1014.0 - 0.0 - - - - - - -
13/08:00pm 19.7 SW 16 19 1013.8 - 0.0 - - - - - - -
13/07:30pm 20.3 SW 15 17 1013.4 - 0.0 - - - - - - -
13/07:00pm 20.9 SW 13 16 1013.2 - 0.0 - - - - - - -
13/06:30pm 20.8 SW 15 17 1013.0 - 0.0 - - - - - - -
13/06:00pm 21.0 SW 16 19 1013.0 - 0.0 - - - - - - -
13/05:30pm 21.5 SW 14 16 1013.3 - 0.0 - - - - - - -
13/05:00pm 21.6 SW 15 18 1013.2 - 0.0 - - - - - - -
13/04:30pm 21.4 SW 13 15 1013.3 - 0.0 - - - - - - -
13/04:00pm 21.3 SW 13 16 1013.4 - 0.0 - - - - - - -
13/03:30pm 20.3 SSW 15 17 1013.3 - 0.0 - - - - - - -
13/03:00pm 20.1 SSW 16 19 1013.4 - 0.0 - - - - - - -
13/02:30pm 20.1 SW 13 16 1013.4 - 0.0 - - - - - - -
13/02:00pm 20.0 SW 12 15 1013.3 - 0.0 - - - - - - -
13/01:30pm 20.4 SW 13 15 1013.2 - 0.0 - - - - - - -
13/01:00pm 20.3 SW 15 18 1013.2 - 0.0 - - - - - - -
13/12:30pm 20.7 WSW 10 12 1013.0 - 0.0 - - - - - - -
13/12:00pm 21.1 WSW 10 11 1012.9 - 0.0 - - - - - - -
13/11:30am 20.7 WSW 9 12 1012.8 - 0.0 - - - - - - -
13/11:00am 20.4 WSW 9 10 1012.8 - 0.0 - - - - - - -
13/10:30am 20.0 WSW 9 11 1012.6 - 0.0 - - - - - - -
13/10:00am 19.8 WSW 11 12 1012.5 - 0.0 - - - - - - -
13/09:30am 19.6 WSW 10 11 1012.2 - 0.0 - - - - - - -
13/09:00am 19.6 WSW 10 11 1011.8 - 0.0 - - - - - - -
13/08:30am 19.5 W 8 9 1011.5 - 0.0 - - - - - - -
13/08:00am 19.4 W 9 10 1011.3 - 0.0 - - - - - - -
13/07:30am 19.3 W 9 11 1011.0 - 0.0 - - - - - - -
13/07:00am 19.2 W 10 11 1010.8 - 0.0 - - - - - - -
13/06:30am 19.2 W 9 11 1010.7 - 0.0 - - - - - - -
13/06:00am 19.0 W 10 11 1010.5 - 0.0 - - - - - - -
13/05:30am 18.9 WNW 10 12 1010.4 - 0.0 - - - - - - -
13/05:00am 18.9 WNW 11 13 1010.3 - 0.0 - - - - - - -
13/04:30am 18.8 WNW 9 11 1010.4 - 0.0 - - - - - - -
13/04:00am 18.7 NW 8 10 1010.5 - 0.0 - - - - - - -
13/03:30am 18.8 NW 8 9 1010.5 - 0.0 - - - - - - -
13/03:00am 18.8 NNW 8 9 1010.7 - 0.0 - - - - - - -
13/02:30am 18.9 NW 7 9 1011.1 - 0.0 - - - - - - -
13/02:00am 19.0 WNW 7 8 1011.4 - 0.0 - - - - - - -
13/01:30am 19.0 WNW 8 9 1011.5 - 0.0 - - - - - - -
13/01:00am 19.0 WNW 8 10 1011.5 - 0.0 - - - - - - -
13/12:30am 19.1 W 7 8 1011.5 - 0.0 - - - - - - -
13/12:00am 19.3 W 9 11 1011.9 - 0.0 - - - - - - -
 
Date/Time
EDT
Temp

°C
Wind Pressure Rain
since 9am
mm
Weather Cloud Vis
km
Sea
Height
m
Swell
Dir
 
Speed
knots
Gust
knots
hPa Trend Height
m
Period
s
Dir
12/11:30pm 19.1 NW 7 8 1011.5 - 0.0 - - - - - - -
12/11:00pm 19.1 NW 7 9 1011.7 - 0.0 - - - - - - -
12/10:30pm 19.1 NNW 7 8 1011.7 - 0.0 - - - - - - -
12/10:00pm 19.1 WNW 6 7 1011.8 - 0.0 - - - - - - -
12/09:30pm 19.3 W 5 6 1011.6 - 0.0 - - - - - - -
12/09:00pm 19.5 WNW 4 5 1011.7 - 0.0 - - - - - - -
12/08:30pm 19.5 N 4 5 1011.5 - 0.0 - - - - - - -
12/08:00pm 20.2 WNW 4 5 1011.8 - 0.0 - - - - - - -
12/07:30pm 20.6 WSW 5 6 1012.0 - 0.0 - - - - - - -
12/07:00pm 20.4 SSW 4 5 1011.7 - 0.0 - - - - - - -
12/06:30pm 20.5 ENE 4 5 1011.8 - 0.0 - - - - - - -
12/06:00pm 20.6 SSW 5 6 1012.2 - 0.0 - - - - - - -
12/05:30pm 20.8 S 6 7 1012.2 - 0.0 - - - - - - -
12/05:00pm 21.6 S 8 9 1012.7 - 0.0 - - - - - - -
12/04:30pm 20.6 SSW 10 11 1012.9 - 0.0 - - - - - - -
12/04:00pm 22.2 SW 10 13 1013.5 - 0.0 - - - - - - -
12/03:30pm 22.0 SW 14 16 1014.0 - 0.0 - - - - - - -
12/03:00pm 22.6 SW 10 12 1014.3 - 0.0 - - - - - - -
12/02:30pm 21.2 SSW 8 10 1014.5 - 0.0 - - - - - - -
12/02:00pm 21.3 SSW 6 8 1014.7 - 0.0 - - - - - - -
12/01:30pm 20.9 ENE 9 11 1013.8 - 0.0 - - - - - - -
12/01:00pm 20.9 E 9 11 1014.2 - 0.0 - - - - - - -
12/12:30pm 20.6 E 8 10 1014.7 - 0.0 - - - - - - -
12/12:00pm 20.4 ESE 8 10 1015.0 - 0.0 - - - - - - -
12/11:30am 20.9 ESE 8 9 1015.3 - 0.0 - - - - - - -
12/11:00am 21.1 ESE 7 9 1015.6 - 0.0 - - - - - - -
12/10:30am 20.1 ESE 7 9 1016.0 - 0.0 - - - - - - -
12/10:00am 19.6 E 8 10 1016.1 - 0.0 - - - - - - -
12/09:30am 19.5 ESE 8 9 1016.3 - 0.0 - - - - - - -
12/09:00am 18.7 ESE 8 9 1016.3 - 0.0 - - - - - - -
12/08:30am 17.8 ESE 8 10 1016.1 - 0.0 - - - - - - -
12/08:00am 17.5 ESE 8 10 1015.8 - 0.0 - - - - - - -
12/07:30am 16.9 SE 8 9 1015.7 - 0.0 - - - - - - -
12/07:00am 16.9 ESE 9 11 1015.5 - 0.0 - - - - - - -
12/06:30am 16.9 SE 11 13 1015.2 - 0.0 - - - - - - -
12/06:00am 17.0 ESE 11 13 1015.0 - 0.0 - - - - - - -
12/05:30am 17.0 SE 11 13 1015.1 - 0.0 - - - - - - -
12/05:00am 17.0 SE 10 13 1015.0 - 0.0 - - - - - - -
12/04:30am 17.0 SE 11 13 1014.9 - 0.0 - - - - - - -
12/04:00am 17.2 SSE 11 13 1015.3 - 0.0 - - - - - - -
12/03:30am 17.3 SSE 9 11 1015.9 - 0.0 - - - - - - -
12/03:00am 17.4 SSE 9 11 1016.1 - 0.0 - - - - - - -
12/02:30am 17.4 SSE 11 13 1016.4 - 0.0 - - - - - - -
12/02:00am 17.6 SE 12 14 1016.5 - 0.0 - - - - - - -
12/01:30am 17.7 SE 13 16 1016.6 - 0.0 - - - - - - -
12/01:00am 17.8 SSE 13 15 1017.1 - 0.0 - - - - - - -
12/12:30am 18.0 SSE 14 16 1017.2 - 0.0 - - - - - - -
12/12:00am 18.0 SSE 14 17 1017.5 - 0.0 - - - - - - -
 
Date/Time
EDT
Temp

°C
Wind Pressure Rain
since 9am
mm
Weather Cloud Vis
km
Sea
Height
m
Swell
Dir
 
Speed
knots
Gust
knots
hPa Trend Height
m
Period
s
Dir
11/11:30pm 18.0 SSE 15 18 1017.3 - 0.0 - - - - - - -
11/11:00pm 18.1 SSE 17 19 1017.4 - 0.0 - - - - - - -
11/10:30pm 18.2 SSE 17 21 1017.4 - 0.0 - - - - - - -
11/10:00pm 18.2 SSE 19 22 1017.3 - 0.0 - - - - - - -
11/09:30pm 18.3 SSE 21 26 1016.8 - 0.0 - - - - - - -
11/09:00pm 18.5 S 22 27 1016.7 - 0.0 - - - - - - -
11/08:30pm 18.9 S 21 26 1016.3 - 0.0 - - - - - - -
11/08:00pm 19.0 S 24 29 1015.8 - 0.0 - - - - - - -
11/07:30pm 19.3 S 25 29 1015.7 - 0.0 - - - - - - -
11/07:00pm 19.5 S 25 30 1015.5 - 0.0 - - - - - - -
11/06:30pm 19.8 S 23 27 1015.3 - 0.0 - - - - - - -
11/06:00pm 20.1 S 21 27 1015.3 - 0.0 - - - - - - -
11/05:30pm 20.3 S 21 25 1015.3 - 0.0 - - - - - - -
11/05:00pm 20.7 S 17 22 1015.4 - 0.0 - - - - - - -
11/04:30pm 20.8 S 18 22 1015.6 - 0.0 - - - - - - -
11/04:00pm 21.3 S 15 19 1015.8 - 0.0 - - - - - - -
11/03:30pm 21.3 S 15 18 1016.0 - 0.0 - - - - - - -

Other Formats:

Comma delimited format used in spreadsheet applications
http://www.bom.gov.au/fwo/IDT60701/IDT60701.94804.axf

JavaScript Object Notation format (JSON) in row-major order
http://www.bom.gov.au/fwo/IDT60701/IDT60701.94804.json